MSC Maya — 3FNF8 — position and weather

sailwx.info

Track history (hours):
 
Tides and Currents Weather Stations Pressure Air Temp Water Temp Dewpoint Dewpoint Depression Visibility Wind Speed Wind Dir Waves Ship Positions

MSC Maya

Last reported at 2015-Jan-11 06:15 UTC. Time now 2015-Jan-27 05:51 UTC.
Position N 37°53' W 076°10'.
Warning: this ship's position is 15 days out of date.

Length 180 m; draft 8.9 m.

Type: Cargo ship. MMSI: 351384000.

Date/timePositionNaut miles runAvg speedWind from/ knotsBaromVisibWave heightAir tempDewpointWater temp
2015-Jan-11 06:15N 37°53' W 076°10'1415.8
2015-Jan-11 05:22N 38°07' W 076°14'4415.7
2015-Jan-11 02:33N 38°50' W 076°25'1414.3
2015-Jan-11 01:33N 39°04' W 076°24'10 9.8
2015-Jan-11 00:33N 39°12' W 076°31'3 3.4
2015-Jan-10 23:33N 39°15' W 076°33'0 0.0
2015-Jan-10 22:30N 39°15' W 076°33'0 0.0
2015-Jan-10 21:33N 39°15' W 076°33'0 0.0
2015-Jan-10 20:33N 39°15' W 076°33'0 0.0
2015-Jan-10 19:33N 39°15' W 076°33'0 0.0
2015-Jan-10 18:31N 39°15' W 076°33'0 0.0
2015-Jan-10 17:31N 39°15' W 076°33'0 0.0
2015-Jan-10 16:31N 39°15' W 076°33'0 0.0
2015-Jan-10 15:31N 39°15' W 076°33'0 0.0
2015-Jan-10 14:33N 39°15' W 076°33'4 4.2
2015-Jan-10 13:33N 39°12' W 076°30'1110.7
2015-Jan-10 12:33N 39°03' W 076°23'1413.6
2015-Jan-10 11:33N 38°49' W 076°24'4113.6
2015-Jan-10 08:30N 38°09' W 076°14'1514.8
2015-Jan-10 07:31N 37°54' W 076°09'140 6.7
2015-Jan-09 10:33N 39°27' W 073°55'1313.3
2015-Jan-09 09:32N 39°41' W 073°52'1713.8
2015-Jan-09 08:17N 39°58' W 073°51'2910.6
2015-Jan-09 05:30N 40°27' W 073°50'9 9.8
2015-Jan-09 04:33N 40°31' W 074°00'9 9.1
2015-Jan-09 03:34N 40°39' W 074°08'3 2.9
2015-Jan-09 02:34N 40°41' W 074°09'0 0.0
2015-Jan-09 01:29N 40°41' W 074°09'0 0.0
2015-Jan-09 00:29N 40°41' W 074°09'0 0.0
2015-Jan-08 22:23N 40°41' W 074°09'0 0.0
2015-Jan-08 21:33N 40°41' W 074°09'0 0.0
2015-Jan-08 20:10N 40°41' W 074°09'0 0.0
2015-Jan-08 19:28N 40°41' W 074°09'0 0.0
2015-Jan-08 18:16N 40°41' W 074°09'0 0.0
2015-Jan-08 17:16N 40°41' W 074°09'0 0.0
2015-Jan-08 16:28N 40°41' W 074°09'0 0.0
2015-Jan-08 15:22N 40°41' W 074°09'0 0.0
2015-Jan-08 14:28N 40°41' W 074°09'0 0.0
2015-Jan-08 13:23N 40°41' W 074°09'0 0.0
2015-Jan-08 12:23N 40°41' W 074°09'0 0.0
2015-Jan-08 11:29N 40°41' W 074°09'0 0.0
2015-Jan-08 10:29N 40°41' W 074°09'0 0.0
2015-Jan-08 09:29N 40°41' W 074°09'0 0.0
2015-Jan-08 08:29N 40°41' W 074°09'0 0.0
2015-Jan-08 07:29N 40°41' W 074°09'0 0.0
2015-Jan-08 06:29N 40°41' W 074°09'0 0.0
2015-Jan-08 05:29N 40°41' W 074°09'2 2.2
2015-Jan-08 04:33N 40°39' W 074°09'4 5.9
2015-Jan-08 03:51N 40°39' W 074°03'1410.8
2015-Jan-08 02:33N 40°28' W 073°51'44 2.9
2015-Jan-07 11:26N 40°05' W 073°02'1 1.6
2015-Jan-07 10:33N 40°05' W 073°04'3 1.4
2015-Jan-07 08:19N 40°02' W 073°03'2413.9
2015-Jan-07 06:33N 39°49' W 072°37'1413.8
2015-Jan-07 05:33N 39°41' W 072°22'3013.9
2015-Jan-07 03:22N 39°24' W 071°49'  
Track history (hours):
 
Tides and Currents Weather Stations Pressure Air Temp Water Temp Dewpoint Dewpoint Depression Visibility Wind Speed Wind Dir Waves Ship Positions

MSC Maya

Last reported at 2015-Jan-11 06:15 UTC. Time now 2015-Jan-27 05:51 UTC.
Position N 37°53' W 076°10'.
Warning: this ship's position is 15 days out of date.

Length 180 m; draft 8.9 m.

Type: Cargo ship. MMSI: 351384000.

Date/timePositionNaut miles runAvg speedWind from/ knotsBaromVisibWave heightAir tempDewpointWater temp
2015-Jan-11 06:15N 37°53' W 076°10'1415.8
2015-Jan-11 05:22N 38°07' W 076°14'4415.7
2015-Jan-11 02:33N 38°50' W 076°25'1414.3
2015-Jan-11 01:33N 39°04' W 076°24'10 9.8
2015-Jan-11 00:33N 39°12' W 076°31'3 3.4
2015-Jan-10 23:33N 39°15' W 076°33'0 0.0
2015-Jan-10 22:30N 39°15' W 076°33'0 0.0
2015-Jan-10 21:33N 39°15' W 076°33'0 0.0
2015-Jan-10 20:33N 39°15' W 076°33'0 0.0
2015-Jan-10 19:33N 39°15' W 076°33'0 0.0
2015-Jan-10 18:31N 39°15' W 076°33'0 0.0
2015-Jan-10 17:31N 39°15' W 076°33'0 0.0
2015-Jan-10 16:31N 39°15' W 076°33'0 0.0
2015-Jan-10 15:31N 39°15' W 076°33'0 0.0
2015-Jan-10 14:33N 39°15' W 076°33'4 4.2
2015-Jan-10 13:33N 39°12' W 076°30'1110.7
2015-Jan-10 12:33N 39°03' W 076°23'1413.6
2015-Jan-10 11:33N 38°49' W 076°24'4113.6
2015-Jan-10 08:30N 38°09' W 076°14'1514.8
2015-Jan-10 07:31N 37°54' W 076°09'140 6.7
2015-Jan-09 10:33N 39°27' W 073°55'1313.3
2015-Jan-09 09:32N 39°41' W 073°52'1713.8
2015-Jan-09 08:17N 39°58' W 073°51'2910.6
2015-Jan-09 05:30N 40°27' W 073°50'9 9.8
2015-Jan-09 04:33N 40°31' W 074°00'9 9.1
2015-Jan-09 03:34N 40°39' W 074°08'3 2.9
2015-Jan-09 02:34N 40°41' W 074°09'0 0.0
2015-Jan-09 01:29N 40°41' W 074°09'0 0.0
2015-Jan-09 00:29N 40°41' W 074°09'0 0.0
2015-Jan-08 22:23N 40°41' W 074°09'0 0.0
2015-Jan-08 21:33N 40°41' W 074°09'0 0.0
2015-Jan-08 20:10N 40°41' W 074°09'0 0.0
2015-Jan-08 19:28N 40°41' W 074°09'0 0.0
2015-Jan-08 18:16N 40°41' W 074°09'0 0.0
2015-Jan-08 17:16N 40°41' W 074°09'0 0.0
2015-Jan-08 16:28N 40°41' W 074°09'0 0.0
2015-Jan-08 15:22N 40°41' W 074°09'0 0.0
2015-Jan-08 14:28N 40°41' W 074°09'0 0.0
2015-Jan-08 13:23N 40°41' W 074°09'0 0.0
2015-Jan-08 12:23N 40°41' W 074°09'0 0.0
2015-Jan-08 11:29N 40°41' W 074°09'0 0.0
2015-Jan-08 10:29N 40°41' W 074°09'0 0.0
2015-Jan-08 09:29N 40°41' W 074°09'0 0.0
2015-Jan-08 08:29N 40°41' W 074°09'0 0.0
2015-Jan-08 07:29N 40°41' W 074°09'0 0.0
2015-Jan-08 06:29N 40°41' W 074°09'0 0.0
2015-Jan-08 05:29N 40°41' W 074°09'2 2.2
2015-Jan-08 04:33N 40°39' W 074°09'4 5.9
2015-Jan-08 03:51N 40°39' W 074°03'1410.8
2015-Jan-08 02:33N 40°28' W 073°51'44 2.9
2015-Jan-07 11:26N 40°05' W 073°02'1 1.6
2015-Jan-07 10:33N 40°05' W 073°04'3 1.4
2015-Jan-07 08:19N 40°02' W 073°03'2413.9
2015-Jan-07 06:33N 39°49' W 072°37'1413.8
2015-Jan-07 05:33N 39°41' W 072°22'3013.9
2015-Jan-07 03:22N 39°24' W 071°49'  

Dump ship's entire track history